sensor_id;sensor_type;location;lat;lon;timestamp;temperature;humidity
49184;DHT22;35021;49.214;12.270;2022-10-16T00:01:28;21.20;59.90
49184;DHT22;35021;49.214;12.270;2022-10-16T00:03:57;21.20;59.90
49184;DHT22;35021;49.214;12.270;2022-10-16T00:06:25;21.30;60.60
49184;DHT22;35021;49.214;12.270;2022-10-16T00:08:53;21.20;59.90
49184;DHT22;35021;49.214;12.270;2022-10-16T00:11:29;21.30;59.90
49184;DHT22;35021;49.214;12.270;2022-10-16T00:13:58;21.30;59.90
49184;DHT22;35021;49.214;12.270;2022-10-16T00:16:27;21.30;59.90
49184;DHT22;35021;49.214;12.270;2022-10-16T00:18:55;21.30;59.90
49184;DHT22;35021;49.214;12.270;2022-10-16T00:21:24;21.30;59.80
49184;DHT22;35021;49.214;12.270;2022-10-16T00:23:56;21.30;59.90
49184;DHT22;35021;49.214;12.270;2022-10-16T00:26:23;21.30;59.80
49184;DHT22;35021;49.214;12.270;2022-10-16T00:28:51;21.30;59.80
49184;DHT22;35021;49.214;12.270;2022-10-16T00:31:20;21.30;59.80
49184;DHT22;35021;49.214;12.270;2022-10-16T00:33:47;21.30;59.70
49184;DHT22;35021;49.214;12.270;2022-10-16T00:36:17;21.30;59.70
49184;DHT22;35021;49.214;12.270;2022-10-16T00:38:44;21.30;59.70
49184;DHT22;35021;49.214;12.270;2022-10-16T00:41:14;21.30;59.60
49184;DHT22;35021;49.214;12.270;2022-10-16T00:43:45;21.30;59.60
49184;DHT22;35021;49.214;12.270;2022-10-16T00:46:40;21.30;59.50
49184;DHT22;35021;49.214;12.270;2022-10-16T00:49:14;21.30;59.40
49184;DHT22;35021;49.214;12.270;2022-10-16T00:51:43;21.20;59.40
49184;DHT22;35021;49.214;12.270;2022-10-16T00:54:14;21.20;59.40
49184;DHT22;35021;49.214;12.270;2022-10-16T00:56:43;21.20;59.50
49184;DHT22;35021;49.214;12.270;2022-10-16T00:59:24;21.20;59.50
49184;DHT22;35021;49.214;12.270;2022-10-16T01:01:52;21.20;59.60
49184;DHT22;35021;49.214;12.270;2022-10-16T01:04:20;21.10;59.60
49184;DHT22;35021;49.214;12.270;2022-10-16T01:06:52;21.10;59.70
49184;DHT22;35021;49.214;12.270;2022-10-16T01:09:51;21.10;59.70
49184;DHT22;35021;49.214;12.270;2022-10-16T01:12:41;21.10;59.80
49184;DHT22;35021;49.214;12.270;2022-10-16T01:15:23;21.10;59.80
49184;DHT22;35021;49.214;12.270;2022-10-16T01:20:30;21.10;59.90
49184;DHT22;35021;49.214;12.270;2022-10-16T01:28:25;21.10;59.80
49184;DHT22;35021;49.214;12.270;2022-10-16T01:30:58;21.10;59.90
49184;DHT22;35021;49.214;12.270;2022-10-16T01:33:36;21.10;59.90
49184;DHT22;35021;49.214;12.270;2022-10-16T01:36:14;21.10;59.90
49184;DHT22;35021;49.214;12.270;2022-10-16T01:38:43;21.10;59.90
49184;DHT22;35021;49.214;12.270;2022-10-16T01:41:21;21.10;59.80
49184;DHT22;35021;49.214;12.270;2022-10-16T01:44:02;21.10;59.90
49184;DHT22;35021;49.214;12.270;2022-10-16T01:46:31;21.10;59.80
49184;DHT22;35021;49.214;12.270;2022-10-16T01:49:00;21.10;59.70
49184;DHT22;35021;49.214;12.270;2022-10-16T01:51:29;21.10;59.70
49184;DHT22;35021;49.214;12.270;2022-10-16T01:53:58;21.10;59.70
49184;DHT22;35021;49.214;12.270;2022-10-16T01:56:26;21.10;59.60
49184;DHT22;35021;49.214;12.270;2022-10-16T01:59:15;21.20;59.60
49184;DHT22;35021;49.214;12.270;2022-10-16T02:01:47;21.20;59.60
49184;DHT22;35021;49.214;12.270;2022-10-16T02:04:38;21.10;59.50
49184;DHT22;35021;49.214;12.270;2022-10-16T02:07:06;21.20;59.60
49184;DHT22;35021;49.214;12.270;2022-10-16T02:09:34;21.10;59.50
49184;DHT22;35021;49.214;12.270;2022-10-16T02:12:15;21.20;59.60
49184;DHT22;35021;49.214;12.270;2022-10-16T02:14:46;21.20;59.60
49184;DHT22;35021;49.214;12.270;2022-10-16T02:17:15;21.10;59.50
49184;DHT22;35021;49.214;12.270;2022-10-16T02:19:45;21.20;59.60
49184;DHT22;35021;49.214;12.270;2022-10-16T02:22:18;21.20;59.60
49184;DHT22;35021;49.214;12.270;2022-10-16T02:24:58;21.20;59.60
49184;DHT22;35021;49.214;12.270;2022-10-16T02:30:33;21.20;59.50
49184;DHT22;35021;49.214;12.270;2022-10-16T02:33:02;21.20;59.50
49184;DHT22;35021;49.214;12.270;2022-10-16T02:35:31;21.20;59.50
49184;DHT22;35021;49.214;12.270;2022-10-16T02:37:59;21.10;59.40
49184;DHT22;35021;49.214;12.270;2022-10-16T02:40:26;21.20;59.50
49184;DHT22;35021;49.214;12.270;2022-10-16T02:42:55;21.20;59.60
49184;DHT22;35021;49.214;12.270;2022-10-16T02:45:23;21.20;59.50
49184;DHT22;35021;49.214;12.270;2022-10-16T02:47:50;21.20;59.60
49184;DHT22;35021;49.214;12.270;2022-10-16T02:50:16;21.20;59.60
49184;DHT22;35021;49.214;12.270;2022-10-16T02:52:43;21.20;59.50
49184;DHT22;35021;49.214;12.270;2022-10-16T02:55:10;21.20;59.50
49184;DHT22;35021;49.214;12.270;2022-10-16T02:57:37;21.20;59.50
49184;DHT22;35021;49.214;12.270;2022-10-16T03:00:05;21.10;59.50
49184;DHT22;35021;49.214;12.270;2022-10-16T03:02:32;21.20;59.50
49184;DHT22;35021;49.214;12.270;2022-10-16T03:04:59;21.20;59.50
49184;DHT22;35021;49.214;12.270;2022-10-16T03:07:25;21.20;59.60
49184;DHT22;35021;49.214;12.270;2022-10-16T03:09:53;21.10;59.50
49184;DHT22;35021;49.214;12.270;2022-10-16T03:12:21;21.10;59.50
49184;DHT22;35021;49.214;12.270;2022-10-16T03:14:48;21.10;59.50
49184;DHT22;35021;49.214;12.270;2022-10-16T03:17:15;21.20;59.60
49184;DHT22;35021;49.214;12.270;2022-10-16T03:19:44;21.10;59.60
49184;DHT22;35021;49.214;12.270;2022-10-16T03:22:11;21.10;59.60
49184;DHT22;35021;49.214;12.270;2022-10-16T03:24:38;21.10;59.60
49184;DHT22;35021;49.214;12.270;2022-10-16T03:27:05;21.10;59.60
49184;DHT22;35021;49.214;12.270;2022-10-16T03:29:32;21.10;59.70
49184;DHT22;35021;49.214;12.270;2022-10-16T03:31:59;21.10;59.70
49184;DHT22;35021;49.214;12.270;2022-10-16T03:34:26;21.10;59.70
49184;DHT22;35021;49.214;12.270;2022-10-16T03:36:54;21.10;59.70
49184;DHT22;35021;49.214;12.270;2022-10-16T03:39:21;21.10;59.70
49184;DHT22;35021;49.214;12.270;2022-10-16T03:41:48;21.10;59.70
49184;DHT22;35021;49.214;12.270;2022-10-16T03:44:14;21.10;59.70
49184;DHT22;35021;49.214;12.270;2022-10-16T03:46:41;21.10;59.70
49184;DHT22;35021;49.214;12.270;2022-10-16T03:49:08;21.10;59.70
49184;DHT22;35021;49.214;12.270;2022-10-16T03:51:35;21.10;59.70
49184;DHT22;35021;49.214;12.270;2022-10-16T03:54:02;21.10;59.80
49184;DHT22;35021;49.214;12.270;2022-10-16T03:56:29;21.10;59.70
49184;DHT22;35021;49.214;12.270;2022-10-16T03:58:56;21.10;59.70
49184;DHT22;35021;49.214;12.270;2022-10-16T04:01:23;21.10;59.70
49184;DHT22;35021;49.214;12.270;2022-10-16T04:03:50;21.10;59.70
49184;DHT22;35021;49.214;12.270;2022-10-16T04:06:17;21.10;59.70
49184;DHT22;35021;49.214;12.270;2022-10-16T04:08:44;21.10;59.60
49184;DHT22;35021;49.214;12.270;2022-10-16T04:11:11;21.10;59.60
49184;DHT22;35021;49.214;12.270;2022-10-16T04:13:37;21.10;59.60
49184;DHT22;35021;49.214;12.270;2022-10-16T04:16:04;21.10;59.70
49184;DHT22;35021;49.214;12.270;2022-10-16T04:18:31;21.00;59.70
49184;DHT22;35021;49.214;12.270;2022-10-16T04:21:03;21.00;59.70
49184;DHT22;35021;49.214;12.270;2022-10-16T04:23:30;21.00;59.80
49184;DHT22;35021;49.214;12.270;2022-10-16T04:25:57;21.00;59.80
49184;DHT22;35021;49.214;12.270;2022-10-16T04:28:24;21.00;59.90
49184;DHT22;35021;49.214;12.270;2022-10-16T04:30:51;21.00;59.90
49184;DHT22;35021;49.214;12.270;2022-10-16T04:33:18;21.00;59.80
49184;DHT22;35021;49.214;12.270;2022-10-16T04:35:45;20.90;59.80
49184;DHT22;35021;49.214;12.270;2022-10-16T04:38:11;20.90;59.90
49184;DHT22;35021;49.214;12.270;2022-10-16T04:40:38;20.90;60.00
49184;DHT22;35021;49.214;12.270;2022-10-16T04:43:05;20.90;60.00
49184;DHT22;35021;49.214;12.270;2022-10-16T04:45:32;20.90;60.10
49184;DHT22;35021;49.214;12.270;2022-10-16T04:47:59;20.90;60.20
49184;DHT22;35021;49.214;12.270;2022-10-16T04:50:26;20.90;60.20
49184;DHT22;35021;49.214;12.270;2022-10-16T04:52:53;20.80;60.20
49184;DHT22;35021;49.214;12.270;2022-10-16T04:55:20;20.80;60.20
49184;DHT22;35021;49.214;12.270;2022-10-16T04:57:46;20.80;60.20
49184;DHT22;35021;49.214;12.270;2022-10-16T05:00:13;20.80;60.20
49184;DHT22;35021;49.214;12.270;2022-10-16T05:02:40;20.80;60.20
49184;DHT22;35021;49.214;12.270;2022-10-16T05:05:07;20.80;60.20
49184;DHT22;35021;49.214;12.270;2022-10-16T05:07:34;20.80;60.10
49184;DHT22;35021;49.214;12.270;2022-10-16T05:10:01;20.80;60.10
49184;DHT22;35021;49.214;12.270;2022-10-16T05:12:31;20.80;60.10
49184;DHT22;35021;49.214;12.270;2022-10-16T05:14:58;20.80;60.20
49184;DHT22;35021;49.214;12.270;2022-10-16T05:17:26;20.80;60.30
49184;DHT22;35021;49.214;12.270;2022-10-16T05:19:53;20.80;60.30
49184;DHT22;35021;49.214;12.270;2022-10-16T05:22:20;20.80;60.30
49184;DHT22;35021;49.214;12.270;2022-10-16T05:24:47;20.80;60.30
49184;DHT22;35021;49.214;12.270;2022-10-16T05:27:14;20.70;60.20
49184;DHT22;35021;49.214;12.270;2022-10-16T05:29:46;20.80;60.30
49184;DHT22;35021;49.214;12.270;2022-10-16T05:32:17;20.70;60.30
49184;DHT22;35021;49.214;12.270;2022-10-16T05:34:44;20.70;60.40
49184;DHT22;35021;49.214;12.270;2022-10-16T05:37:11;20.70;60.50
49184;DHT22;35021;49.214;12.270;2022-10-16T05:39:39;20.70;60.40
49184;DHT22;35021;49.214;12.270;2022-10-16T05:42:06;20.70;60.50
49184;DHT22;35021;49.214;12.270;2022-10-16T05:44:32;20.70;60.50
49184;DHT22;35021;49.214;12.270;2022-10-16T05:47:04;20.70;60.60
49184;DHT22;35021;49.214;12.270;2022-10-16T05:49:31;20.60;60.50
49184;DHT22;35021;49.214;12.270;2022-10-16T05:51:58;20.70;60.60
49184;DHT22;35021;49.214;12.270;2022-10-16T05:54:25;20.70;60.50
49184;DHT22;35021;49.214;12.270;2022-10-16T05:56:51;20.70;60.50
49184;DHT22;35021;49.214;12.270;2022-10-16T05:59:18;20.70;60.50
49184;DHT22;35021;49.214;12.270;2022-10-16T06:01:45;20.70;60.50
49184;DHT22;35021;49.214;12.270;2022-10-16T06:04:12;20.70;60.40
49184;DHT22;35021;49.214;12.270;2022-10-16T06:06:38;20.70;60.40
49184;DHT22;35021;49.214;12.270;2022-10-16T06:09:05;20.70;60.40
49184;DHT22;35021;49.214;12.270;2022-10-16T06:11:33;20.70;60.40
49184;DHT22;35021;49.214;12.270;2022-10-16T06:14:01;20.70;60.40
49184;DHT22;35021;49.214;12.270;2022-10-16T06:16:34;20.70;60.60
49184;DHT22;35021;49.214;12.270;2022-10-16T06:19:01;20.70;60.70
49184;DHT22;35021;49.214;12.270;2022-10-16T06:21:29;20.70;60.70
49184;DHT22;35021;49.214;12.270;2022-10-16T06:23:56;20.70;60.80
49184;DHT22;35021;49.214;12.270;2022-10-16T06:26:26;20.70;60.70
49184;DHT22;35021;49.214;12.270;2022-10-16T06:28:55;20.70;60.70
49184;DHT22;35021;49.214;12.270;2022-10-16T06:31:23;20.70;60.60
49184;DHT22;35021;49.214;12.270;2022-10-16T06:33:54;20.70;60.60
49184;DHT22;35021;49.214;12.270;2022-10-16T06:36:21;20.70;60.70
49184;DHT22;35021;49.214;12.270;2022-10-16T06:38:48;20.70;60.70
49184;DHT22;35021;49.214;12.270;2022-10-16T06:41:17;20.70;60.80
49184;DHT22;35021;49.214;12.270;2022-10-16T06:43:44;20.70;60.80
49184;DHT22;35021;49.214;12.270;2022-10-16T06:46:14;20.70;60.80
49184;DHT22;35021;49.214;12.270;2022-10-16T06:48:42;20.60;60.80
49184;DHT22;35021;49.214;12.270;2022-10-16T06:51:13;20.60;60.70
49184;DHT22;35021;49.214;12.270;2022-10-16T06:53:45;20.60;60.80
49184;DHT22;35021;49.214;12.270;2022-10-16T06:56:30;20.60;60.80
49184;DHT22;35021;49.214;12.270;2022-10-16T06:58:58;20.60;60.80
49184;DHT22;35021;49.214;12.270;2022-10-16T07:01:26;20.60;60.90
49184;DHT22;35021;49.214;12.270;2022-10-16T07:03:53;20.60;60.90
49184;DHT22;35021;49.214;12.270;2022-10-16T07:06:23;20.60;60.90
49184;DHT22;35021;49.214;12.270;2022-10-16T07:08:50;20.60;61.00
49184;DHT22;35021;49.214;12.270;2022-10-16T07:11:20;20.60;61.00
49184;DHT22;35021;49.214;12.270;2022-10-16T07:13:48;20.60;61.20
49184;DHT22;35021;49.214;12.270;2022-10-16T07:16:26;20.50;61.10
49184;DHT22;35021;49.214;12.270;2022-10-16T07:19:01;20.50;61.20
49184;DHT22;35021;49.214;12.270;2022-10-16T07:21:31;20.50;61.20
49184;DHT22;35021;49.214;12.270;2022-10-16T07:24:02;20.50;61.30
49184;DHT22;35021;49.214;12.270;2022-10-16T07:26:30;20.50;61.30
49184;DHT22;35021;49.214;12.270;2022-10-16T07:28:58;20.50;61.40
49184;DHT22;35021;49.214;12.270;2022-10-16T07:31:25;20.50;61.40
49184;DHT22;35021;49.214;12.270;2022-10-16T07:33:52;20.50;61.40
49184;DHT22;35021;49.214;12.270;2022-10-16T07:36:20;20.50;61.40
49184;DHT22;35021;49.214;12.270;2022-10-16T07:38:48;20.50;61.30
49184;DHT22;35021;49.214;12.270;2022-10-16T07:41:19;20.50;61.20
49184;DHT22;35021;49.214;12.270;2022-10-16T07:43:48;20.50;61.20
49184;DHT22;35021;49.214;12.270;2022-10-16T07:46:16;20.50;61.20
49184;DHT22;35021;49.214;12.270;2022-10-16T07:48:43;20.50;61.10
49184;DHT22;35021;49.214;12.270;2022-10-16T07:51:15;20.50;61.10
49184;DHT22;35021;49.214;12.270;2022-10-16T07:53:43;20.50;61.10
49184;DHT22;35021;49.214;12.270;2022-10-16T07:56:10;20.50;61.00
49184;DHT22;35021;49.214;12.270;2022-10-16T07:58:37;20.50;60.90
49184;DHT22;35021;49.214;12.270;2022-10-16T08:01:06;20.50;60.90
49184;DHT22;35021;49.214;12.270;2022-10-16T08:03:33;20.50;60.80
49184;DHT22;35021;49.214;12.270;2022-10-16T08:06:01;20.50;61.40
49184;DHT22;35021;49.214;12.270;2022-10-16T08:08:28;20.50;60.70
49184;DHT22;35021;49.214;12.270;2022-10-16T08:10:55;20.60;60.70
49184;DHT22;35021;49.214;12.270;2022-10-16T08:13:22;20.60;60.70
49184;DHT22;35021;49.214;12.270;2022-10-16T08:15:49;20.60;60.60
49184;DHT22;35021;49.214;12.270;2022-10-16T08:18:16;20.60;60.60
49184;DHT22;35021;49.214;12.270;2022-10-16T08:20:43;20.60;60.50
49184;DHT22;35021;49.214;12.270;2022-10-16T08:23:13;20.60;60.50
49184;DHT22;35021;49.214;12.270;2022-10-16T08:25:41;20.60;60.50
49184;DHT22;35021;49.214;12.270;2022-10-16T08:28:10;20.60;60.50
49184;DHT22;35021;49.214;12.270;2022-10-16T08:30:37;20.60;60.40
49184;DHT22;35021;49.214;12.270;2022-10-16T08:33:04;20.60;60.30
49184;DHT22;35021;49.214;12.270;2022-10-16T08:35:32;20.60;60.20
49184;DHT22;35021;49.214;12.270;2022-10-16T08:37:59;20.60;60.20
49184;DHT22;35021;49.214;12.270;2022-10-16T08:40:28;20.60;60.40
49184;DHT22;35021;49.214;12.270;2022-10-16T08:48:24;20.70;61.10
49184;DHT22;35021;49.214;12.270;2022-10-16T08:50:54;20.70;61.10
49184;DHT22;35021;49.214;12.270;2022-10-16T08:53:31;20.80;61.10
49184;DHT22;35021;49.214;12.270;2022-10-16T08:56:00;20.90;60.90
49184;DHT22;35021;49.214;12.270;2022-10-16T08:58:29;21.00;60.70
49184;DHT22;35021;49.214;12.270;2022-10-16T09:01:03;21.10;60.40
49184;DHT22;35021;49.214;12.270;2022-10-16T09:17:37;22.00;58.70
49184;DHT22;35021;49.214;12.270;2022-10-16T09:22:50;22.20;58.20
49184;DHT22;35021;49.214;12.270;2022-10-16T09:25:20;22.30;58.00
49184;DHT22;35021;49.214;12.270;2022-10-16T09:27:48;22.30;57.80
49184;DHT22;35021;49.214;12.270;2022-10-16T09:30:21;22.30;57.60
49184;DHT22;35021;49.214;12.270;2022-10-16T09:32:50;22.30;57.40
49184;DHT22;35021;49.214;12.270;2022-10-16T09:35:21;22.30;57.20
49184;DHT22;35021;49.214;12.270;2022-10-16T09:37:51;22.30;57.10
49184;DHT22;35021;49.214;12.270;2022-10-16T09:40:35;22.30;57.10
49184;DHT22;35021;49.214;12.270;2022-10-16T09:46:04;22.20;57.00
49184;DHT22;35021;49.214;12.270;2022-10-16T09:48:42;22.20;57.10
49184;DHT22;35021;49.214;12.270;2022-10-16T09:51:32;22.20;57.00
49184;DHT22;35021;49.214;12.270;2022-10-16T09:54:02;22.10;56.90
49184;DHT22;35021;49.214;12.270;2022-10-16T09:56:34;22.10;56.90
49184;DHT22;35021;49.214;12.270;2022-10-16T09:59:21;22.10;56.90
49184;DHT22;35021;49.214;12.270;2022-10-16T10:01:54;22.10;57.00
49184;DHT22;35021;49.214;12.270;2022-10-16T10:04:23;22.10;57.00
49184;DHT22;35021;49.214;12.270;2022-10-16T10:06:55;22.00;57.00
49184;DHT22;35021;49.214;12.270;2022-10-16T10:12:00;22.00;57.10
49184;DHT22;35021;49.214;12.270;2022-10-16T10:17:32;22.00;57.10
49184;DHT22;35021;49.214;12.270;2022-10-16T10:20:28;22.00;57.00
49184;DHT22;35021;49.214;12.270;2022-10-16T10:22:56;22.00;57.10
49184;DHT22;35021;49.214;12.270;2022-10-16T10:25:41;22.00;57.00
49184;DHT22;35021;49.214;12.270;2022-10-16T10:31:36;22.00;57.00
49184;DHT22;35021;49.214;12.270;2022-10-16T10:34:25;22.00;56.90
49184;DHT22;35021;49.214;12.270;2022-10-16T10:37:02;22.00;56.70
49184;DHT22;35021;49.214;12.270;2022-10-16T10:39:46;22.00;56.70
49184;DHT22;35021;49.214;12.270;2022-10-16T10:42:40;22.00;56.50
49184;DHT22;35021;49.214;12.270;2022-10-16T10:45:26;22.10;56.40
49184;DHT22;35021;49.214;12.270;2022-10-16T10:48:11;22.00;56.30
49184;DHT22;35021;49.214;12.270;2022-10-16T10:50:45;22.10;56.20
49184;DHT22;35021;49.214;12.270;2022-10-16T10:53:33;22.10;56.10
49184;DHT22;35021;49.214;12.270;2022-10-16T10:56:35;22.10;56.00
49184;DHT22;35021;49.214;12.270;2022-10-16T11:07:33;22.10;55.90
49184;DHT22;35021;49.214;12.270;2022-10-16T11:10:12;22.00;55.80
49184;DHT22;35021;49.214;12.270;2022-10-16T11:12:42;22.00;55.90
49184;DHT22;35021;49.214;12.270;2022-10-16T11:15:21;22.00;55.90
49184;DHT22;35021;49.214;12.270;2022-10-16T11:17:57;22.10;56.00
49184;DHT22;35021;49.214;12.270;2022-10-16T11:20:29;22.10;55.90
49184;DHT22;35021;49.214;12.270;2022-10-16T11:25:43;22.10;55.80
49184;DHT22;35021;49.214;12.270;2022-10-16T11:28:16;22.10;55.80
49184;DHT22;35021;49.214;12.270;2022-10-16T11:30:51;22.10;55.70
49184;DHT22;35021;49.214;12.270;2022-10-16T11:35:53;22.10;55.70
49184;DHT22;35021;49.214;12.270;2022-10-16T11:47:26;22.00;55.60
49184;DHT22;35021;49.214;12.270;2022-10-16T11:50:25;22.00;55.70
49184;DHT22;35021;49.214;12.270;2022-10-16T11:55:36;22.10;55.70
49184;DHT22;35021;49.214;12.270;2022-10-16T12:01:10;22.00;55.70
49184;DHT22;35021;49.214;12.270;2022-10-16T12:04:05;22.00;55.60
49184;DHT22;35021;49.214;12.270;2022-10-16T12:06:37;22.00;55.70
49184;DHT22;35021;49.214;12.270;2022-10-16T12:09:29;22.00;55.70
49184;DHT22;35021;49.214;12.270;2022-10-16T12:11:57;22.00;55.80
49184;DHT22;35021;49.214;12.270;2022-10-16T12:16:57;22.00;55.90
49184;DHT22;35021;49.214;12.270;2022-10-16T12:19:28;22.00;55.80
49184;DHT22;35021;49.214;12.270;2022-10-16T12:22:01;22.00;55.80
49184;DHT22;35021;49.214;12.270;2022-10-16T12:24:39;22.00;55.70
49184;DHT22;35021;49.214;12.270;2022-10-16T12:27:40;22.00;55.70
49184;DHT22;35021;49.214;12.270;2022-10-16T12:30:07;22.10;55.60
49184;DHT22;35021;49.214;12.270;2022-10-16T12:32:53;22.10;55.60
49184;DHT22;35021;49.214;12.270;2022-10-16T12:35:25;22.10;55.50
49184;DHT22;35021;49.214;12.270;2022-10-16T12:37:53;22.10;55.50
49184;DHT22;35021;49.214;12.270;2022-10-16T12:40:32;22.10;55.40
49184;DHT22;35021;49.214;12.270;2022-10-16T12:43:11;22.20;55.30
49184;DHT22;35021;49.214;12.270;2022-10-16T12:45:38;22.20;55.30
49184;DHT22;35021;49.214;12.270;2022-10-16T12:48:20;22.20;55.20
49184;DHT22;35021;49.214;12.270;2022-10-16T12:50:48;22.20;55.20
49184;DHT22;35021;49.214;12.270;2022-10-16T12:53:33;22.20;55.20
49184;DHT22;35021;49.214;12.270;2022-10-16T13:01:29;22.10;55.20
49184;DHT22;35021;49.214;12.270;2022-10-16T13:15:46;22.10;55.10
49184;DHT22;35021;49.214;12.270;2022-10-16T13:18:28;22.20;55.10
49184;DHT22;35021;49.214;12.270;2022-10-16T13:24:03;22.10;55.10
49184;DHT22;35021;49.214;12.270;2022-10-16T13:29:05;22.10;55.10
49184;DHT22;35021;49.214;12.270;2022-10-16T13:31:32;22.10;55.10
49184;DHT22;35021;49.214;12.270;2022-10-16T13:34:01;22.10;55.10
49184;DHT22;35021;49.214;12.270;2022-10-16T13:36:33;22.10;55.00
49184;DHT22;35021;49.214;12.270;2022-10-16T13:39:10;22.20;55.10
49184;DHT22;35021;49.214;12.270;2022-10-16T13:41:37;22.20;55.10
49184;DHT22;35021;49.214;12.270;2022-10-16T13:44:07;22.20;55.10
49184;DHT22;35021;49.214;12.270;2022-10-16T13:46:37;22.20;55.20
49184;DHT22;35021;49.214;12.270;2022-10-16T13:49:15;22.10;55.00
49184;DHT22;35021;49.214;12.270;2022-10-16T13:52:00;22.20;55.20
49184;DHT22;35021;49.214;12.270;2022-10-16T13:54:27;22.10;55.10
49184;DHT22;35021;49.214;12.270;2022-10-16T13:57:05;22.20;55.10
49184;DHT22;35021;49.214;12.270;2022-10-16T13:59:52;22.20;55.00
49184;DHT22;35021;49.214;12.270;2022-10-16T14:02:27;22.10;55.00
49184;DHT22;35021;49.214;12.270;2022-10-16T14:04:57;22.20;55.10
49184;DHT22;35021;49.214;12.270;2022-10-16T14:07:27;22.20;55.10
49184;DHT22;35021;49.214;12.270;2022-10-16T14:09:54;22.20;55.10
49184;DHT22;35021;49.214;12.270;2022-10-16T14:12:22;22.30;55.20
49184;DHT22;35021;49.214;12.270;2022-10-16T14:14:55;22.30;55.20
49184;DHT22;35021;49.214;12.270;2022-10-16T14:17:32;22.30;55.20
49184;DHT22;35021;49.214;12.270;2022-10-16T14:20:04;22.30;55.20
49184;DHT22;35021;49.214;12.270;2022-10-16T14:25:00;22.30;55.10
49184;DHT22;35021;49.214;12.270;2022-10-16T14:27:37;22.30;55.10
49184;DHT22;35021;49.214;12.270;2022-10-16T14:30:21;22.30;55.20
49184;DHT22;35021;49.214;12.270;2022-10-16T14:33:00;22.30;55.20
49184;DHT22;35021;49.214;12.270;2022-10-16T14:35:29;22.30;55.20
49184;DHT22;35021;49.214;12.270;2022-10-16T14:37:57;22.30;55.20
49184;DHT22;35021;49.214;12.270;2022-10-16T14:40:35;22.30;55.20
49184;DHT22;35021;49.214;12.270;2022-10-16T14:43:04;22.30;55.20
49184;DHT22;35021;49.214;12.270;2022-10-16T14:45:33;22.30;55.30
49184;DHT22;35021;49.214;12.270;2022-10-16T14:48:05;22.30;55.20
49184;DHT22;35021;49.214;12.270;2022-10-16T14:50:32;22.30;55.20
49184;DHT22;35021;49.214;12.270;2022-10-16T14:52:59;22.30;55.20
49184;DHT22;35021;49.214;12.270;2022-10-16T14:55:27;22.30;55.20
49184;DHT22;35021;49.214;12.270;2022-10-16T14:57:54;22.30;55.20
49184;DHT22;35021;49.214;12.270;2022-10-16T15:00:26;22.30;55.10
49184;DHT22;35021;49.214;12.270;2022-10-16T15:02:55;22.30;55.10
49184;DHT22;35021;49.214;12.270;2022-10-16T15:05:24;22.40;55.10
49184;DHT22;35021;49.214;12.270;2022-10-16T15:07:53;22.40;55.10
49184;DHT22;35021;49.214;12.270;2022-10-16T15:10:23;22.40;55.10
49184;DHT22;35021;49.214;12.270;2022-10-16T15:12:50;22.40;55.00
49184;DHT22;35021;49.214;12.270;2022-10-16T15:17:50;22.40;55.00
49184;DHT22;35021;49.214;12.270;2022-10-16T15:20:25;22.40;55.00
49184;DHT22;35021;49.214;12.270;2022-10-16T15:22:52;22.40;55.00
49184;DHT22;35021;49.214;12.270;2022-10-16T15:25:37;22.40;55.00
49184;DHT22;35021;49.214;12.270;2022-10-16T15:28:06;22.50;55.20
49184;DHT22;35021;49.214;12.270;2022-10-16T15:30:34;22.50;55.20
49184;DHT22;35021;49.214;12.270;2022-10-16T15:33:01;22.50;55.90
49184;DHT22;35021;49.214;12.270;2022-10-16T15:35:28;22.50;55.20
49184;DHT22;35021;49.214;12.270;2022-10-16T15:37:55;22.50;55.30
49184;DHT22;35021;49.214;12.270;2022-10-16T15:40:22;22.40;55.40
49184;DHT22;35021;49.214;12.270;2022-10-16T15:42:49;22.40;55.50
49184;DHT22;35021;49.214;12.270;2022-10-16T15:45:16;22.40;55.70
49184;DHT22;35021;49.214;12.270;2022-10-16T15:47:45;22.40;55.80
49184;DHT22;35021;49.214;12.270;2022-10-16T15:50:14;22.30;56.70
49184;DHT22;35021;49.214;12.270;2022-10-16T15:52:41;22.30;56.30
49184;DHT22;35021;49.214;12.270;2022-10-16T15:55:10;22.20;56.40
49184;DHT22;35021;49.214;12.270;2022-10-16T15:57:37;22.20;56.70
49184;DHT22;35021;49.214;12.270;2022-10-16T16:00:11;22.20;56.80
49184;DHT22;35021;49.214;12.270;2022-10-16T16:02:40;22.20;57.00
49184;DHT22;35021;49.214;12.270;2022-10-16T16:05:08;22.20;58.00
49184;DHT22;35021;49.214;12.270;2022-10-16T16:07:37;22.20;57.40
49184;DHT22;35021;49.214;12.270;2022-10-16T16:10:06;22.10;57.30
49184;DHT22;35021;49.214;12.270;2022-10-16T16:12:34;22.10;57.40
49184;DHT22;35021;49.214;12.270;2022-10-16T16:15:01;22.00;57.50
49184;DHT22;35021;49.214;12.270;2022-10-16T16:17:32;22.00;57.60
49184;DHT22;35021;49.214;12.270;2022-10-16T16:19:59;22.00;57.80
49184;DHT22;35021;49.214;12.270;2022-10-16T16:22:27;21.90;57.90
49184;DHT22;35021;49.214;12.270;2022-10-16T16:24:55;21.90;58.10
49184;DHT22;35021;49.214;12.270;2022-10-16T16:27:23;21.90;58.20
49184;DHT22;35021;49.214;12.270;2022-10-16T16:29:54;21.90;58.30
49184;DHT22;35021;49.214;12.270;2022-10-16T16:32:21;21.90;58.40
49184;DHT22;35021;49.214;12.270;2022-10-16T16:34:48;21.80;58.30
49184;DHT22;35021;49.214;12.270;2022-10-16T16:37:16;21.90;58.50
49184;DHT22;35021;49.214;12.270;2022-10-16T16:39:43;21.90;58.50
49184;DHT22;35021;49.214;12.270;2022-10-16T16:42:10;21.90;58.60
49184;DHT22;35021;49.214;12.270;2022-10-16T16:44:37;21.90;58.60
49184;DHT22;35021;49.214;12.270;2022-10-16T16:47:05;21.90;58.60
49184;DHT22;35021;49.214;12.270;2022-10-16T16:49:32;21.90;58.60
49184;DHT22;35021;49.214;12.270;2022-10-16T16:51:59;21.90;58.50
49184;DHT22;35021;49.214;12.270;2022-10-16T16:54:25;21.90;58.50
49184;DHT22;35021;49.214;12.270;2022-10-16T16:56:52;21.90;58.60
49184;DHT22;35021;49.214;12.270;2022-10-16T16:59:20;21.90;58.70
49184;DHT22;35021;49.214;12.270;2022-10-16T17:01:48;21.80;58.80
49184;DHT22;35021;49.214;12.270;2022-10-16T17:04:22;21.80;58.90
49184;DHT22;35021;49.214;12.270;2022-10-16T17:06:49;21.80;59.00
49184;DHT22;35021;49.214;12.270;2022-10-16T17:09:16;21.80;59.10
49184;DHT22;35021;49.214;12.270;2022-10-16T17:11:43;21.80;59.30
49184;DHT22;35021;49.214;12.270;2022-10-16T17:14:11;21.80;59.30
49184;DHT22;35021;49.214;12.270;2022-10-16T17:16:38;21.70;59.30
49184;DHT22;35021;49.214;12.270;2022-10-16T17:19:09;21.80;59.40
49184;DHT22;35021;49.214;12.270;2022-10-16T17:21:37;21.70;59.40